sensor_id;sensor_type;location;lat;lon;timestamp;pressure;altitude;pressure_sealevel;temperature;humidity
13013;BME280;22580;57.670;12.006;2023-05-23T00:01:28;101338.22;;;26.67;34.54
13013;BME280;22580;57.670;12.006;2023-05-23T00:03:57;101318.13;;;26.60;34.70
13013;BME280;22580;57.670;12.006;2023-05-23T00:06:24;101311.47;;;26.48;35.07
13013;BME280;22580;57.670;12.006;2023-05-23T00:08:52;101313.31;;;26.69;35.10
13013;BME280;22580;57.670;12.006;2023-05-23T00:11:19;101320.94;;;26.73;34.11
13013;BME280;22580;57.670;12.006;2023-05-23T00:13:51;101347.63;;;26.93;34.58
13013;BME280;22580;57.670;12.006;2023-05-23T00:16:18;101340.84;;;26.82;34.89
13013;BME280;22580;57.670;12.006;2023-05-23T00:18:46;101319.56;;;26.56;34.69
13013;BME280;22580;57.670;12.006;2023-05-23T00:21:16;101312.72;;;26.45;35.00
13013;BME280;22580;57.670;12.006;2023-05-23T00:23:43;101303.16;;;26.63;34.47
13013;BME280;22580;57.670;12.006;2023-05-23T00:26:15;101334.97;;;26.92;34.28
13013;BME280;22580;57.670;12.006;2023-05-23T00:28:45;101286.59;;;26.50;34.31
13013;BME280;22580;57.670;12.006;2023-05-23T00:31:17;101294.88;;;26.56;34.33
13013;BME280;22580;57.670;12.006;2023-05-23T00:33:44;101334.47;;;26.75;34.37
13013;BME280;22580;57.670;12.006;2023-05-23T00:36:12;101323.03;;;26.71;34.19
13013;BME280;22580;57.670;12.006;2023-05-23T00:38:40;101326.41;;;27.01;33.39
13013;BME280;22580;57.670;12.006;2023-05-23T00:41:07;101295.25;;;26.88;33.53
13013;BME280;22580;57.670;12.006;2023-05-23T00:43:40;101286.75;;;26.41;34.49
13013;BME280;22580;57.670;12.006;2023-05-23T00:46:15;101285.06;;;26.40;34.01
13013;BME280;22580;57.670;12.006;2023-05-23T00:48:46;101296.47;;;26.72;33.38
13013;BME280;22580;57.670;12.006;2023-05-23T00:51:15;101299.50;;;26.56;33.09
13013;BME280;22580;57.670;12.006;2023-05-23T00:53:46;101300.97;;;26.52;32.72
13013;BME280;22580;57.670;12.006;2023-05-23T00:56:16;101276.25;;;26.80;32.83
13013;BME280;22580;57.670;12.006;2023-05-23T00:58:48;101295.97;;;26.62;32.79
13013;BME280;22580;57.670;12.006;2023-05-23T01:01:18;101308.69;;;27.04;32.48
13013;BME280;22580;57.670;12.006;2023-05-23T01:03:52;101310.53;;;26.97;32.73
13013;BME280;22580;57.670;12.006;2023-05-23T01:06:21;101301.63;;;27.29;31.37
13013;BME280;22580;57.670;12.006;2023-05-23T01:08:49;101285.91;;;27.10;31.07
13013;BME280;22580;57.670;12.006;2023-05-23T01:11:26;101262.78;;;26.85;32.03
13013;BME280;22580;57.670;12.006;2023-05-23T01:14:10;101264.19;;;25.90;32.45
13013;BME280;22580;57.670;12.006;2023-05-23T01:16:45;101297.91;;;25.55;34.10
13013;BME280;22580;57.670;12.006;2023-05-23T01:19:28;101276.44;;;25.73;33.63
13013;BME280;22580;57.670;12.006;2023-05-23T01:22:05;101242.84;;;26.35;32.19
13013;BME280;22580;57.670;12.006;2023-05-23T01:24:35;101305.94;;;27.04;31.63
13013;BME280;22580;57.670;12.006;2023-05-23T01:27:15;101295.06;;;27.24;31.38
13013;BME280;22580;57.670;12.006;2023-05-23T01:29:54;101290.81;;;26.87;31.31
13013;BME280;22580;57.670;12.006;2023-05-23T01:32:24;101249.59;;;26.67;31.47
13013;BME280;22580;57.670;12.006;2023-05-23T01:34:52;101275.94;;;27.50;30.60
13013;BME280;22580;57.670;12.006;2023-05-23T01:37:19;101292.63;;;27.01;31.36
13013;BME280;22580;57.670;12.006;2023-05-23T01:39:46;101255.47;;;24.64;34.99
13013;BME280;22580;57.670;12.006;2023-05-23T01:42:13;101298.03;;;26.53;32.91
13013;BME280;22580;57.670;12.006;2023-05-23T01:44:41;101266.25;;;27.06;32.08
13013;BME280;22580;57.670;12.006;2023-05-23T01:47:10;101269.19;;;27.53;31.58
13013;BME280;22580;57.670;12.006;2023-05-23T01:49:38;101274.25;;;27.01;31.40
13013;BME280;22580;57.670;12.006;2023-05-23T01:52:09;101267.38;;;27.19;31.53
13013;BME280;22580;57.670;12.006;2023-05-23T01:54:37;101269.28;;;27.25;31.19
13013;BME280;22580;57.670;12.006;2023-05-23T01:57:08;101265.84;;;27.09;32.11
13013;BME280;22580;57.670;12.006;2023-05-23T01:59:36;101278.28;;;27.05;32.06
13013;BME280;22580;57.670;12.006;2023-05-23T02:02:03;101256.53;;;27.04;31.34
13013;BME280;22580;57.670;12.006;2023-05-23T02:04:32;101265.88;;;27.16;31.73
13013;BME280;22580;57.670;12.006;2023-05-23T02:06:59;101266.13;;;27.21;31.56
13013;BME280;22580;57.670;12.006;2023-05-23T02:09:26;101259.63;;;27.35;31.42
13013;BME280;22580;57.670;12.006;2023-05-23T02:11:53;101211.81;;;27.10;31.54
13013;BME280;22580;57.670;12.006;2023-05-23T02:14:20;101251.75;;;27.19;31.83
13013;BME280;22580;57.670;12.006;2023-05-23T02:16:48;101238.81;;;27.06;31.43
13013;BME280;22580;57.670;12.006;2023-05-23T02:19:17;101202.44;;;26.85;31.73
13013;BME280;22580;57.670;12.006;2023-05-23T02:21:47;101226.06;;;26.86;32.21
13013;BME280;22580;57.670;12.006;2023-05-23T02:24:14;101230.56;;;27.00;32.70
13013;BME280;22580;57.670;12.006;2023-05-23T02:26:41;101190.13;;;26.74;32.90
13013;BME280;22580;57.670;12.006;2023-05-23T02:29:08;101177.53;;;26.86;32.61
13013;BME280;22580;57.670;12.006;2023-05-23T02:31:35;101209.59;;;26.86;33.11
13013;BME280;22580;57.670;12.006;2023-05-23T02:34:02;101212.75;;;26.89;32.75
13013;BME280;22580;57.670;12.006;2023-05-23T02:36:29;101221.81;;;26.42;33.58
13013;BME280;22580;57.670;12.006;2023-05-23T02:39:01;101210.78;;;25.79;34.36
13013;BME280;22580;57.670;12.006;2023-05-23T02:41:30;101190.16;;;23.72;37.92
13013;BME280;22580;57.670;12.006;2023-05-23T02:43:58;101208.41;;;23.72;39.31
13013;BME280;22580;57.670;12.006;2023-05-23T02:46:25;101203.06;;;23.78;38.87
13013;BME280;22580;57.670;12.006;2023-05-23T02:48:54;101161.25;;;24.96;37.08
13013;BME280;22580;57.670;12.006;2023-05-23T02:51:21;101194.41;;;25.86;35.69
13013;BME280;22580;57.670;12.006;2023-05-23T02:53:48;101161.59;;;25.93;35.02
13013;BME280;22580;57.670;12.006;2023-05-23T02:56:23;101171.00;;;25.84;35.27
13013;BME280;22580;57.670;12.006;2023-05-23T02:58:52;101133.84;;;25.74;35.33
13013;BME280;22580;57.670;12.006;2023-05-23T03:01:20;101181.00;;;25.98;34.91
13013;BME280;22580;57.670;12.006;2023-05-23T03:03:50;101150.34;;;25.81;34.98
13013;BME280;22580;57.670;12.006;2023-05-23T03:06:17;101152.50;;;25.43;35.48
13013;BME280;22580;57.670;12.006;2023-05-23T03:08:47;101143.94;;;25.53;35.63
13013;BME280;22580;57.670;12.006;2023-05-23T03:11:14;101115.13;;;25.57;34.91
13013;BME280;22580;57.670;12.006;2023-05-23T03:14:03;101166.09;;;24.79;35.70
13013;BME280;22580;57.670;12.006;2023-05-23T03:16:32;101134.06;;;24.73;35.93
13013;BME280;22580;57.670;12.006;2023-05-23T03:19:51;101110.81;;;23.51;38.70
13013;BME280;22580;57.670;12.006;2023-05-23T03:22:56;101110.69;;;25.06;35.44
13013;BME280;22580;57.670;12.006;2023-05-23T03:25:44;101132.97;;;24.08;36.63
13013;BME280;22580;57.670;12.006;2023-05-23T03:28:11;101110.44;;;25.72;34.00
13013;BME280;22580;57.670;12.006;2023-05-23T03:30:49;101150.66;;;24.57;36.45
13013;BME280;22580;57.670;12.006;2023-05-23T03:33:16;101154.47;;;25.98;33.98
13013;BME280;22580;57.670;12.006;2023-05-23T03:35:43;101108.00;;;25.84;33.68
13013;BME280;22580;57.670;12.006;2023-05-23T03:38:18;101126.88;;;26.00;33.24
13013;BME280;22580;57.670;12.006;2023-05-23T03:40:47;101098.59;;;25.93;33.35
13013;BME280;22580;57.670;12.006;2023-05-23T03:43:14;101137.78;;;25.65;34.39
13013;BME280;22580;57.670;12.006;2023-05-23T03:45:46;101136.72;;;25.45;34.60
13013;BME280;22580;57.670;12.006;2023-05-23T03:48:13;101127.69;;;24.36;37.27
13013;BME280;22580;57.670;12.006;2023-05-23T03:50:53;101122.09;;;25.80;34.11
13013;BME280;22580;57.670;12.006;2023-05-23T03:53:21;101140.22;;;26.16;34.38
13013;BME280;22580;57.670;12.006;2023-05-23T03:55:48;101085.06;;;25.85;34.43
13013;BME280;22580;57.670;12.006;2023-05-23T03:58:16;101109.50;;;25.86;34.94
13013;BME280;22580;57.670;12.006;2023-05-23T04:00:47;101114.28;;;25.56;35.40
13013;BME280;22580;57.670;12.006;2023-05-23T04:03:15;101107.13;;;25.76;35.51
13013;BME280;22580;57.670;12.006;2023-05-23T04:05:42;101098.69;;;25.78;34.95
13013;BME280;22580;57.670;12.006;2023-05-23T04:08:09;101106.97;;;25.85;35.38
13013;BME280;22580;57.670;12.006;2023-05-23T04:10:36;101108.91;;;25.91;35.08
13013;BME280;22580;57.670;12.006;2023-05-23T04:13:03;101120.06;;;25.89;35.02
13013;BME280;22580;57.670;12.006;2023-05-23T04:15:31;101116.78;;;26.07;34.72
13013;BME280;22580;57.670;12.006;2023-05-23T04:18:00;101096.50;;;26.01;35.06
13013;BME280;22580;57.670;12.006;2023-05-23T04:20:34;101098.75;;;25.85;35.16
13013;BME280;22580;57.670;12.006;2023-05-23T04:23:01;101080.19;;;25.80;34.46
13013;BME280;22580;57.670;12.006;2023-05-23T04:25:28;101104.13;;;25.99;35.35
13013;BME280;22580;57.670;12.006;2023-05-23T04:27:55;101070.66;;;25.76;34.95
13013;BME280;22580;57.670;12.006;2023-05-23T04:30:22;101077.94;;;25.90;34.80
13013;BME280;22580;57.670;12.006;2023-05-23T04:32:54;101084.94;;;26.06;35.16
13013;BME280;22580;57.670;12.006;2023-05-23T04:35:25;101090.81;;;26.03;34.11
13013;BME280;22580;57.670;12.006;2023-05-23T04:37:53;101078.84;;;25.48;35.08
13013;BME280;22580;57.670;12.006;2023-05-23T04:44:34;101086.06;;;24.19;38.11
13013;BME280;22580;57.670;12.006;2023-05-23T05:01:59;101013.06;;;25.97;35.91
13013;BME280;22580;57.670;12.006;2023-05-23T05:04:34;101036.69;;;26.05;35.98
13013;BME280;22580;57.670;12.006;2023-05-23T05:07:01;101038.78;;;26.03;35.65
13013;BME280;22580;57.670;12.006;2023-05-23T05:10:07;101018.94;;;26.01;35.08
13013;BME280;22580;57.670;12.006;2023-05-23T05:12:41;101039.19;;;25.93;36.24
13013;BME280;22580;57.670;12.006;2023-05-23T05:15:58;101062.66;;;25.74;36.50
13013;BME280;22580;57.670;12.006;2023-05-23T05:18:58;101034.91;;;25.56;36.65
13013;BME280;22580;57.670;12.006;2023-05-23T05:21:26;101045.50;;;26.00;36.02
13013;BME280;22580;57.670;12.006;2023-05-23T05:23:55;101065.22;;;25.83;36.27
13013;BME280;22580;57.670;12.006;2023-05-23T05:26:24;101007.06;;;25.53;36.99
13013;BME280;22580;57.670;12.006;2023-05-23T05:28:52;101031.19;;;25.98;36.50
13013;BME280;22580;57.670;12.006;2023-05-23T05:31:19;101063.94;;;26.20;36.11
13013;BME280;22580;57.670;12.006;2023-05-23T05:34:17;101045.19;;;25.75;36.80
13013;BME280;22580;57.670;12.006;2023-05-23T05:37:03;101041.09;;;25.99;36.35
13013;BME280;22580;57.670;12.006;2023-05-23T05:39:33;101053.31;;;26.38;34.69
13013;BME280;22580;57.670;12.006;2023-05-23T05:42:00;101021.59;;;26.29;33.87
13013;BME280;22580;57.670;12.006;2023-05-23T05:44:28;101049.16;;;26.55;32.90
13013;BME280;22580;57.670;12.006;2023-05-23T05:46:58;101053.72;;;26.35;33.53
13013;BME280;22580;57.670;12.006;2023-05-23T05:49:33;101024.63;;;26.40;33.57
13013;BME280;22580;57.670;12.006;2023-05-23T05:52:01;101013.25;;;26.37;33.76
13013;BME280;22580;57.670;12.006;2023-05-23T05:54:28;101019.78;;;26.36;34.18
13013;BME280;22580;57.670;12.006;2023-05-23T05:57:09;101034.19;;;26.58;34.79
13013;BME280;22580;57.670;12.006;2023-05-23T05:59:39;101043.72;;;26.68;35.02
13013;BME280;22580;57.670;12.006;2023-05-23T06:02:06;101045.41;;;26.69;34.77
13013;BME280;22580;57.670;12.006;2023-05-23T06:04:35;101046.63;;;26.60;34.97
13013;BME280;22580;57.670;12.006;2023-05-23T06:07:02;101005.66;;;25.91;34.01
13013;BME280;22580;57.670;12.006;2023-05-23T06:09:29;101049.66;;;25.83;35.39
13013;BME280;22580;57.670;12.006;2023-05-23T06:11:56;101029.91;;;26.01;34.58
13013;BME280;22580;57.670;12.006;2023-05-23T06:14:23;101036.69;;;26.05;34.19
13013;BME280;22580;57.670;12.006;2023-05-23T06:16:50;101040.03;;;26.00;34.59
13013;BME280;22580;57.670;12.006;2023-05-23T06:19:17;101032.50;;;26.16;35.26
13013;BME280;22580;57.670;12.006;2023-05-23T06:21:46;101020.03;;;26.06;35.85
13013;BME280;22580;57.670;12.006;2023-05-23T06:24:13;101040.34;;;26.25;35.69
13013;BME280;22580;57.670;12.006;2023-05-23T06:26:40;101033.63;;;25.80;34.74
13013;BME280;22580;57.670;12.006;2023-05-23T06:29:11;101042.13;;;25.92;36.03
13013;BME280;22580;57.670;12.006;2023-05-23T06:31:38;101023.94;;;25.84;36.89
13013;BME280;22580;57.670;12.006;2023-05-23T06:34:08;100970.34;;;25.40;37.06
13013;BME280;22580;57.670;12.006;2023-05-23T06:36:40;100995.00;;;25.68;35.84
13013;BME280;22580;57.670;12.006;2023-05-23T06:39:12;100987.03;;;25.73;35.73
13013;BME280;22580;57.670;12.006;2023-05-23T06:41:46;100972.50;;;25.73;35.25
13013;BME280;22580;57.670;12.006;2023-05-23T06:44:14;100992.75;;;25.78;35.24
13013;BME280;22580;57.670;12.006;2023-05-23T06:46:41;100969.78;;;25.79;35.49
13013;BME280;22580;57.670;12.006;2023-05-23T06:49:09;100987.56;;;25.97;35.98
13013;BME280;22580;57.670;12.006;2023-05-23T06:51:36;100947.19;;;25.71;36.53
13013;BME280;22580;57.670;12.006;2023-05-23T06:54:04;100978.00;;;25.79;35.50
13013;BME280;22580;57.670;12.006;2023-05-23T06:56:32;100995.47;;;25.78;35.59
13013;BME280;22580;57.670;12.006;2023-05-23T06:59:05;101027.75;;;25.83;35.67
13013;BME280;22580;57.670;12.006;2023-05-23T07:01:32;100992.34;;;25.54;36.21
13013;BME280;22580;57.670;12.006;2023-05-23T07:03:59;100998.41;;;25.49;36.48
13013;BME280;22580;57.670;12.006;2023-05-23T07:06:28;101013.03;;;25.63;35.85
13013;BME280;22580;57.670;12.006;2023-05-23T07:08:55;101013.31;;;25.68;37.11
13013;BME280;22580;57.670;12.006;2023-05-23T07:11:22;100993.03;;;25.62;36.13
13013;BME280;22580;57.670;12.006;2023-05-23T07:13:51;101045.38;;;25.74;35.08
13013;BME280;22580;57.670;12.006;2023-05-23T07:16:18;101003.16;;;25.34;35.83
13013;BME280;22580;57.670;12.006;2023-05-23T07:18:45;101004.91;;;25.41;35.87
13013;BME280;22580;57.670;12.006;2023-05-23T07:21:12;100988.13;;;25.23;37.42
13013;BME280;22580;57.670;12.006;2023-05-23T07:23:39;100977.81;;;25.25;36.16
13013;BME280;22580;57.670;12.006;2023-05-23T07:26:06;101015.41;;;25.66;36.59
13013;BME280;22580;57.670;12.006;2023-05-23T07:28:34;100982.41;;;25.46;36.33
13013;BME280;22580;57.670;12.006;2023-05-23T07:31:03;101018.88;;;25.81;36.74
13013;BME280;22580;57.670;12.006;2023-05-23T07:33:33;100975.72;;;25.55;38.23
13013;BME280;22580;57.670;12.006;2023-05-23T07:36:00;100994.44;;;25.79;35.42
13013;BME280;22580;57.670;12.006;2023-05-23T07:38:27;100994.72;;;25.91;34.52
13013;BME280;22580;57.670;12.006;2023-05-23T07:40:54;101017.50;;;26.05;34.28
13013;BME280;22580;57.670;12.006;2023-05-23T07:43:21;100976.59;;;25.90;33.71
13013;BME280;22580;57.670;12.006;2023-05-23T07:45:48;101016.09;;;26.22;33.00
13013;BME280;22580;57.670;12.006;2023-05-23T07:48:16;100983.75;;;25.91;32.34
13013;BME280;22580;57.670;12.006;2023-05-23T07:50:43;101035.59;;;25.93;32.41
13013;BME280;22580;57.670;12.006;2023-05-23T07:53:10;101034.72;;;25.86;33.85
13013;BME280;22580;57.670;12.006;2023-05-23T07:55:37;101013.44;;;25.88;34.42
13013;BME280;22580;57.670;12.006;2023-05-23T07:58:04;101001.47;;;25.95;33.54
13013;BME280;22580;57.670;12.006;2023-05-23T08:00:31;101029.00;;;25.80;34.25
13013;BME280;22580;57.670;12.006;2023-05-23T08:03:00;101006.41;;;26.20;33.74
13013;BME280;22580;57.670;12.006;2023-05-23T08:05:28;101041.44;;;26.31;34.33
13013;BME280;22580;57.670;12.006;2023-05-23T08:07:55;100984.59;;;26.46;33.21
13013;BME280;22580;57.670;12.006;2023-05-23T08:10:23;101035.69;;;26.87;31.57
13013;BME280;22580;57.670;12.006;2023-05-23T08:12:52;101033.19;;;26.78;32.01
13013;BME280;22580;57.670;12.006;2023-05-23T08:15:19;101003.22;;;26.70;32.71
13013;BME280;22580;57.670;12.006;2023-05-23T08:17:47;101031.13;;;27.07;32.95
13013;BME280;22580;57.670;12.006;2023-05-23T08:20:15;101009.16;;;27.00;32.62
13013;BME280;22580;57.670;12.006;2023-05-23T08:22:45;100980.66;;;26.75;31.94
13013;BME280;22580;57.670;12.006;2023-05-23T08:25:12;101027.31;;;27.01;30.73
13013;BME280;22580;57.670;12.006;2023-05-23T08:27:42;101032.16;;;27.13;30.50
13013;BME280;22580;57.670;12.006;2023-05-23T08:30:12;101032.59;;;27.03;30.00
13013;BME280;22580;57.670;12.006;2023-05-23T08:32:39;101011.06;;;27.00;30.67
13013;BME280;22580;57.670;12.006;2023-05-23T08:35:09;100988.69;;;27.23;30.15
13013;BME280;22580;57.670;12.006;2023-05-23T08:37:36;101002.81;;;27.26;29.58
13013;BME280;22580;57.670;12.006;2023-05-23T08:40:13;101019.06;;;27.41;28.76
13013;BME280;22580;57.670;12.006;2023-05-23T08:42:44;101010.41;;;26.85;29.55
13013;BME280;22580;57.670;12.006;2023-05-23T08:45:11;100966.88;;;25.88;30.15
13013;BME280;22580;57.670;12.006;2023-05-23T08:47:41;100992.31;;;26.29;29.49
13013;BME280;22580;57.670;12.006;2023-05-23T08:50:11;101003.88;;;26.25;29.74
13013;BME280;22580;57.670;12.006;2023-05-23T08:52:42;100979.19;;;26.18;30.28
13013;BME280;22580;57.670;12.006;2023-05-23T08:55:12;101018.34;;;26.47;29.90
13013;BME280;22580;57.670;12.006;2023-05-23T08:57:39;101019.63;;;26.51;30.30
13013;BME280;22580;57.670;12.006;2023-05-23T09:00:13;101017.13;;;26.62;30.26
13013;BME280;22580;57.670;12.006;2023-05-23T09:02:42;101025.16;;;26.70;30.39
13013;BME280;22580;57.670;12.006;2023-05-23T09:05:09;101018.88;;;26.96;29.27
13013;BME280;22580;57.670;12.006;2023-05-23T09:07:37;101004.09;;;27.30;28.97
13013;BME280;22580;57.670;12.006;2023-05-23T09:10:09;101008.09;;;27.15;29.26
13013;BME280;22580;57.670;12.006;2023-05-23T09:12:38;100989.31;;;26.98;29.35
13013;BME280;22580;57.670;12.006;2023-05-23T09:15:06;101009.31;;;26.59;29.56
13013;BME280;22580;57.670;12.006;2023-05-23T09:17:35;100999.22;;;26.80;29.57
13013;BME280;22580;57.670;12.006;2023-05-23T09:20:10;101009.31;;;26.92;29.18
13013;BME280;22580;57.670;12.006;2023-05-23T09:22:37;101007.69;;;27.24;28.58
13013;BME280;22580;57.670;12.006;2023-05-23T09:25:05;101009.59;;;27.10;28.77
13013;BME280;22580;57.670;12.006;2023-05-23T09:27:34;100969.03;;;26.73;28.92
13013;BME280;22580;57.670;12.006;2023-05-23T09:30:14;101018.88;;;27.03;28.97
13013;BME280;22580;57.670;12.006;2023-05-23T09:32:56;101018.25;;;27.07;29.44
13013;BME280;22580;57.670;12.006;2023-05-23T09:35:24;100990.75;;;26.61;29.24
13013;BME280;22580;57.670;12.006;2023-05-23T09:37:56;100997.91;;;26.56;29.40
13013;BME280;22580;57.670;12.006;2023-05-23T09:40:29;101015.28;;;27.02;28.97
13013;BME280;22580;57.670;12.006;2023-05-23T09:43:01;101012.47;;;25.67;30.11
13013;BME280;22580;57.670;12.006;2023-05-23T09:45:31;100991.19;;;26.10;30.37
13013;BME280;22580;57.670;12.006;2023-05-23T09:47:58;100993.97;;;26.24;30.41
13013;BME280;22580;57.670;12.006;2023-05-23T09:50:30;101010.81;;;26.68;30.07
13013;BME280;22580;57.670;12.006;2023-05-23T09:52:58;101007.88;;;26.96;29.59
13013;BME280;22580;57.670;12.006;2023-05-23T09:55:25;101022.41;;;26.90;29.31
13013;BME280;22580;57.670;12.006;2023-05-23T09:57:53;101016.13;;;27.09;29.25
13013;BME280;22580;57.670;12.006;2023-05-23T10:00:22;101018.84;;;26.76;29.11
13013;BME280;22580;57.670;12.006;2023-05-23T10:02:59;101026.97;;;26.43;29.76
13013;BME280;22580;57.670;12.006;2023-05-23T10:05:37;100998.50;;;26.44;30.87
13013;BME280;22580;57.670;12.006;2023-05-23T10:08:08;101021.28;;;26.45;31.46
13013;BME280;22580;57.670;12.006;2023-05-23T10:14:00;101009.31;;;26.59;31.79
13013;BME280;22580;57.670;12.006;2023-05-23T10:16:36;100997.25;;;25.93;33.34
13013;BME280;22580;57.670;12.006;2023-05-23T10:19:21;101019.38;;;26.39;33.46
13013;BME280;22580;57.670;12.006;2023-05-23T10:21:51;101025.50;;;26.48;33.32
13013;BME280;22580;57.670;12.006;2023-05-23T10:24:20;101025.88;;;26.31;33.21
13013;BME280;22580;57.670;12.006;2023-05-23T10:26:47;101025.91;;;26.03;33.79
13013;BME280;22580;57.670;12.006;2023-05-23T10:29:15;101017.78;;;26.23;33.75
13013;BME280;22580;57.670;12.006;2023-05-23T10:31:42;101033.59;;;26.69;33.12
13013;BME280;22580;57.670;12.006;2023-05-23T10:34:16;101035.06;;;26.91;32.68
13013;BME280;22580;57.670;12.006;2023-05-23T10:36:52;101038.00;;;26.70;32.82
13013;BME280;22580;57.670;12.006;2023-05-23T10:39:30;101043.03;;;26.53;34.27
13013;BME280;22580;57.670;12.006;2023-05-23T10:42:02;101030.19;;;26.60;34.21
13013;BME280;22580;57.670;12.006;2023-05-23T10:44:31;101047.91;;;26.58;34.03
13013;BME280;22580;57.670;12.006;2023-05-23T10:46:59;101050.44;;;26.59;34.68
13013;BME280;22580;57.670;12.006;2023-05-23T10:49:41;101053.84;;;26.74;35.12
13013;BME280;22580;57.670;12.006;2023-05-23T10:52:10;101054.25;;;26.71;35.49
13013;BME280;22580;57.670;12.006;2023-05-23T10:54:45;101042.09;;;26.33;38.64
13013;BME280;22580;57.670;12.006;2023-05-23T10:57:15;101035.31;;;26.29;40.12
13013;BME280;22580;57.670;12.006;2023-05-23T10:59:44;101034.47;;;26.28;42.13
13013;BME280;22580;57.670;12.006;2023-05-23T11:02:13;101033.78;;;26.20;43.43
13013;BME280;22580;57.670;12.006;2023-05-23T11:04:42;101031.06;;;26.20;44.28
13013;BME280;22580;57.670;12.006;2023-05-23T11:07:27;101026.31;;;26.35;45.29
13013;BME280;22580;57.670;12.006;2023-05-23T11:10:11;101010.66;;;26.29;46.56
13013;BME280;22580;57.670;12.006;2023-05-23T11:12:40;101032.53;;;26.22;46.89
13013;BME280;22580;57.670;12.006;2023-05-23T11:15:28;101032.88;;;26.06;48.27
13013;BME280;22580;57.670;12.006;2023-05-23T11:18:07;101014.31;;;25.95;50.33
13013;BME280;22580;57.670;12.006;2023-05-23T11:20:36;101018.03;;;25.80;52.66
13013;BME280;22580;57.670;12.006;2023-05-23T11:23:07;101010.63;;;25.74;53.77
13013;BME280;22580;57.670;12.006;2023-05-23T11:25:41;101044.69;;;26.00;54.81
13013;BME280;22580;57.670;12.006;2023-05-23T11:28:09;101044.91;;;25.98;55.81
13013;BME280;22580;57.670;12.006;2023-05-23T11:30:37;101033.34;;;26.09;56.13
13013;BME280;22580;57.670;12.006;2023-05-23T11:33:08;101039.03;;;26.56;54.50
13013;BME280;22580;57.670;12.006;2023-05-23T11:35:40;101004.78;;;26.32;54.48
13013;BME280;22580;57.670;12.006;2023-05-23T11:38:10;101045.00;;;26.25;56.37
13013;BME280;22580;57.670;12.006;2023-05-23T11:40:38;101047.69;;;26.59;56.35
13013;BME280;22580;57.670;12.006;2023-05-23T11:43:08;101040.06;;;26.48;56.88
13013;BME280;22580;57.670;12.006;2023-05-23T11:45:36;101039.66;;;26.51;56.50
13013;BME280;22580;57.670;12.006;2023-05-23T11:48:07;101056.13;;;26.17;58.42
13013;BME280;22580;57.670;12.006;2023-05-23T11:50:44;101067.00;;;26.03;58.81
13013;BME280;22580;57.670;12.006;2023-05-23T11:53:11;101045.06;;;25.62;58.95
13013;BME280;22580;57.670;12.006;2023-05-23T11:55:47;101015.50;;;25.23;58.05
13013;BME280;22580;57.670;12.006;2023-05-23T11:58:16;101049.69;;;24.91;60.92
13013;BME280;22580;57.670;12.006;2023-05-23T12:00:44;101063.41;;;25.40;60.33
13013;BME280;22580;57.670;12.006;2023-05-23T12:03:11;101063.41;;;25.40;60.98
13013;BME280;22580;57.670;12.006;2023-05-23T12:05:38;101057.78;;;25.48;61.38
13013;BME280;22580;57.670;12.006;2023-05-23T12:08:10;101033.19;;;25.27;61.86
13013;BME280;22580;57.670;12.006;2023-05-23T12:10:48;101033.19;;;25.27;61.53
13013;BME280;22580;57.670;12.006;2023-05-23T12:13:15;101047.88;;;25.47;64.63
13013;BME280;22580;57.670;12.006;2023-05-23T12:15:42;101024.69;;;25.43;64.50
13013;BME280;22580;57.670;12.006;2023-05-23T12:18:10;101034.38;;;25.18;65.31
13013;BME280;22580;57.670;12.006;2023-05-23T12:20:40;101042.06;;;25.01;66.79
13013;BME280;22580;57.670;12.006;2023-05-23T12:23:16;101017.78;;;25.20;66.83
13013;BME280;22580;57.670;12.006;2023-05-23T12:25:52;101045.63;;;25.79;64.28
13013;BME280;22580;57.670;12.006;2023-05-23T12:28:20;101063.53;;;25.82;63.63
13013;BME280;22580;57.670;12.006;2023-05-23T12:31:07;101054.47;;;26.22;61.69
13013;BME280;22580;57.670;12.006;2023-05-23T12:33:43;101024.03;;;26.04;61.96
13013;BME280;22580;57.670;12.006;2023-05-23T12:36:12;101037.13;;;26.08;60.88
13013;BME280;22580;57.670;12.006;2023-05-23T12:38:41;101027.06;;;26.22;59.56
13013;BME280;22580;57.670;12.006;2023-05-23T12:41:10;101056.59;;;26.27;60.58
13013;BME280;22580;57.670;12.006;2023-05-23T12:43:38;101046.38;;;26.42;60.32
13013;BME280;22580;57.670;12.006;2023-05-23T12:46:05;101001.59;;;25.80;60.90
13013;BME280;22580;57.670;12.006;2023-05-23T12:48:33;101045.53;;;26.41;59.97
13013;BME280;22580;57.670;12.006;2023-05-23T12:51:00;101045.00;;;26.25;60.26
13013;BME280;22580;57.670;12.006;2023-05-23T12:53:28;101024.91;;;26.11;60.39
13013;BME280;22580;57.670;12.006;2023-05-23T12:55:56;100990.09;;;25.98;60.67
13013;BME280;22580;57.670;12.006;2023-05-23T12:58:24;101016.78;;;26.31;59.86
13013;BME280;22580;57.670;12.006;2023-05-23T13:00:51;101031.47;;;26.71;58.03
13013;BME280;22580;57.670;12.006;2023-05-23T13:03:18;101029.97;;;26.62;56.44
13013;BME280;22580;57.670;12.006;2023-05-23T13:05:45;101042.22;;;26.66;55.80
13013;BME280;22580;57.670;12.006;2023-05-23T13:08:12;101045.63;;;26.74;55.89
13013;BME280;22580;57.670;12.006;2023-05-23T13:10:39;101024.63;;;26.34;57.94
13013;BME280;22580;57.670;12.006;2023-05-23T13:13:07;101034.13;;;26.44;58.93
13013;BME280;22580;57.670;12.006;2023-05-23T13:15:34;101042.19;;;26.53;59.14
13013;BME280;22580;57.670;12.006;2023-05-23T13:18:01;101029.47;;;26.38;56.80
13013;BME280;22580;57.670;12.006;2023-05-23T13:20:29;101036.06;;;26.09;55.53